Time;durP1;ratioP1;P1;durP2;ratioP2;P2;SDS_P1;SDS_P2;PMS_P1;PMS_P2;Temp;Humidity;BMP_temperature;BMP_pressure;BME280_temperature;BME280_humidity;BME280_pressure;Samples;Min_cycle;Max_cycle;Signal;HPM_P1;HPM_P2
2024/01/26 00:01:03;;;;;;;10.07;4.67;;;;;;;;;;4996085;28;20190;-85
2024/01/26 00:04:08;;;;;;;13.30;5.00;;;;;;;;;;4987094;28;20190;-85
2024/01/26 00:07:12;;;;;;;15.03;4.90;;;;;;;;;;4988918;28;20178;-86
2024/01/26 00:10:16;;;;;;;11.33;4.53;;;;;;;;;;5003702;28;20530;-85
2024/01/26 00:13:22;;;;;;;10.17;4.73;;;;;;;;;;5006601;28;20186;-85
2024/01/26 00:16:26;;;;;;;8.77;4.43;;;;;;;;;;5004964;28;20226;-85
2024/01/26 00:19:30;;;;;;;8.97;4.30;;;;;;;;;;5005244;28;20186;-85
2024/01/26 00:22:34;;;;;;;10.90;5.07;;;;;;;;;;5004305;28;20190;-85
2024/01/26 00:25:39;;;;;;;12.30;5.20;;;;;;;;;;4983010;28;20226;-84
2024/01/26 00:28:43;;;;;;;8.33;4.73;;;;;;;;;;5007314;28;20182;-85
2024/01/26 00:31:47;;;;;;;11.13;5.20;;;;;;;;;;4996923;28;20186;-86
2024/01/26 00:34:52;;;;;;;14.70;4.90;;;;;;;;;;5007701;28;20217;-85
2024/01/26 00:37:56;;;;;;;8.97;4.43;;;;;;;;;;5005987;28;20579;-85
2024/01/26 00:41:01;;;;;;;7.80;4.13;;;;;;;;;;4994558;28;20182;-85
2024/01/26 00:44:06;;;;;;;12.07;5.17;;;;;;;;;;5006356;28;20190;-85
2024/01/26 00:47:10;;;;;;;8.50;4.87;;;;;;;;;;5006166;28;20635;-85
2024/01/26 00:50:15;;;;;;;10.43;4.93;;;;;;;;;;5005338;28;20194;-85
2024/01/26 00:53:19;;;;;;;12.07;4.80;;;;;;;;;;4982308;28;20186;-85
2024/01/26 00:56:23;;;;;;;9.90;5.03;;;;;;;;;;4981611;28;20230;-85
2024/01/26 00:59:28;;;;;;;10.00;4.47;;;;;;;;;;4992772;28;20182;-85
2024/01/26 01:02:32;;;;;;;10.80;5.27;;;;;;;;;;4981833;28;20182;-85
2024/01/26 01:05:37;;;;;;;9.70;4.87;;;;;;;;;;4981246;28;20222;-85
2024/01/26 01:08:41;;;;;;;8.17;4.63;;;;;;;;;;5004513;28;20190;-85
2024/01/26 01:11:45;;;;;;;10.47;5.47;;;;;;;;;;5004186;28;20187;-85
2024/01/26 01:14:49;;;;;;;12.53;5.33;;;;;;;;;;5002548;28;20218;-84
2024/01/26 01:17:53;;;;;;;12.60;6.10;;;;;;;;;;4991106;28;20214;-85
2024/01/26 01:20:58;;;;;;;9.87;4.87;;;;;;;;;;5002486;28;20182;-85
2024/01/26 01:24:02;;;;;;;10.03;5.50;;;;;;;;;;4990119;28;20186;-85
2024/01/26 01:27:07;;;;;;;9.73;5.17;;;;;;;;;;5003082;28;20186;-85
2024/01/26 01:30:11;;;;;;;9.90;5.30;;;;;;;;;;5004051;28;20182;-85
2024/01/26 01:33:15;;;;;;;9.90;5.40;;;;;;;;;;5003706;28;20190;-85
2024/01/26 01:36:19;;;;;;;11.27;5.30;;;;;;;;;;5004033;28;20591;-85
2024/01/26 01:39:23;;;;;;;12.77;5.93;;;;;;;;;;5003147;28;20206;-85
2024/01/26 01:42:28;;;;;;;13.50;5.63;;;;;;;;;;4989015;28;20182;-85
2024/01/26 01:45:33;;;;;;;10.37;6.10;;;;;;;;;;4989361;28;20225;-85
2024/01/26 01:48:37;;;;;;;10.47;5.63;;;;;;;;;;5000679;28;20187;-85
2024/01/26 01:51:46;;;;;;;13.33;5.80;;;;;;;;;;5003211;28;20182;-86
2024/01/26 01:54:51;;;;;;;15.13;6.50;;;;;;;;;;4978614;28;20221;-84
2024/01/26 01:57:57;;;;;;;6.73;4.77;;;;;;;;;;4990493;28;20217;-85
2024/01/26 02:01:01;;;;;;;12.83;5.50;;;;;;;;;;5002861;28;20539;-87
2024/01/26 02:04:06;;;;;;;9.90;5.63;;;;;;;;;;5000598;28;20189;-85
2024/01/26 02:07:10;;;;;;;8.97;5.30;;;;;;;;;;4999295;28;20182;-85
2024/01/26 02:10:15;;;;;;;10.43;5.70;;;;;;;;;;4999190;28;20194;-85
2024/01/26 02:13:19;;;;;;;10.07;5.50;;;;;;;;;;4986733;28;20190;-85
2024/01/26 02:16:23;;;;;;;10.03;5.70;;;;;;;;;;4975526;28;20221;-85
2024/01/26 02:19:30;;;;;;;10.60;6.00;;;;;;;;;;4998325;28;20214;-85
2024/01/26 02:22:36;;;;;;;11.73;6.23;;;;;;;;;;4998095;28;20221;-85
2024/01/26 02:25:41;;;;;;;7.73;5.27;;;;;;;;;;4997268;28;20222;-85
2024/01/26 02:28:45;;;;;;;9.13;5.83;;;;;;;;;;4975194;28;20525;-85
2024/01/26 02:31:49;;;;;;;11.63;6.03;;;;;;;;;;4999809;28;20547;-85
2024/01/26 02:34:53;;;;;;;7.80;4.70;;;;;;;;;;4974961;28;20225;-85
2024/01/26 02:37:57;;;;;;;11.47;6.13;;;;;;;;;;4986145;28;20226;-85
2024/01/26 02:41:02;;;;;;;10.80;6.30;;;;;;;;;;4998360;28;20186;-85
2024/01/26 02:44:06;;;;;;;11.20;6.30;;;;;;;;;;4997735;28;20186;-85
2024/01/26 02:47:11;;;;;;;10.93;6.43;;;;;;;;;;4997357;28;20190;-85
2024/01/26 02:50:15;;;;;;;13.73;7.33;;;;;;;;;;4998465;28;20640;-85
2024/01/26 02:53:19;;;;;;;12.30;7.40;;;;;;;;;;4996798;28;20651;-85
2024/01/26 02:56:23;;;;;;;12.63;6.73;;;;;;;;;;4997092;28;20221;-85
2024/01/26 02:59:28;;;;;;;13.20;7.63;;;;;;;;;;4985199;28;20221;-85
2024/01/26 03:02:33;;;;;;;12.83;8.63;;;;;;;;;;4975272;28;20186;-85
2024/01/26 03:05:37;;;;;;;13.40;8.03;;;;;;;;;;4998124;28;20225;-85
2024/01/26 03:08:41;;;;;;;13.67;8.93;;;;;;;;;;4998810;28;20178;-85
2024/01/26 03:11:45;;;;;;;13.10;9.10;;;;;;;;;;4998456;28;20194;-85
2024/01/26 03:14:52;;;;;;;11.57;8.50;;;;;;;;;;4997429;28;20566;-85
2024/01/26 03:17:56;;;;;;;14.93;9.67;;;;;;;;;;4976093;28;20218;-85
2024/01/26 03:21:00;;;;;;;12.07;8.83;;;;;;;;;;4986265;28;20190;-85
2024/01/26 03:24:05;;;;;;;15.13;9.17;;;;;;;;;;4985894;28;20191;-85
2024/01/26 03:27:09;;;;;;;19.20;9.63;;;;;;;;;;4986292;28;20190;-85
2024/01/26 03:30:14;;;;;;;13.90;8.60;;;;;;;;;;4995913;28;20178;-85
2024/01/26 03:33:18;;;;;;;12.37;8.50;;;;;;;;;;4997617;28;20182;-85
2024/01/26 03:36:22;;;;;;;13.30;9.37;;;;;;;;;;4996627;28;20237;-85
2024/01/26 03:39:26;;;;;;;15.00;9.47;;;;;;;;;;4996918;28;20214;-85
2024/01/26 03:42:30;;;;;;;14.57;10.63;;;;;;;;;;4984667;28;20182;-85
2024/01/26 03:45:34;;;;;;;14.60;10.07;;;;;;;;;;4984760;28;20226;-85
2024/01/26 03:48:38;;;;;;;14.70;9.33;;;;;;;;;;4984749;28;20182;-85
2024/01/26 03:51:43;;;;;;;15.20;9.83;;;;;;;;;;4995600;28;20524;-85
2024/01/26 03:54:47;;;;;;;13.63;9.33;;;;;;;;;;4984420;28;20217;-85
2024/01/26 03:57:51;;;;;;;14.23;9.80;;;;;;;;;;4996953;28;20190;-86
2024/01/26 04:00:56;;;;;;;18.63;9.83;;;;;;;;;;4985372;28;20186;-85
2024/01/26 04:04:00;;;;;;;15.07;10.03;;;;;;;;;;4995975;28;20187;-85
2024/01/26 04:07:04;;;;;;;16.27;10.57;;;;;;;;;;4999198;28;20566;-85
2024/01/26 04:10:09;;;;;;;13.47;9.10;;;;;;;;;;4978203;28;20186;-85
2024/01/26 04:13:13;;;;;;;13.10;9.30;;;;;;;;;;5000950;28;20190;-85
2024/01/26 04:16:17;;;;;;;14.73;9.13;;;;;;;;;;5001931;28;20564;-85
2024/01/26 04:19:21;;;;;;;14.10;8.53;;;;;;;;;;4978831;28;20210;-85
2024/01/26 04:22:25;;;;;;;16.50;8.83;;;;;;;;;;4978869;28;20186;-85
2024/01/26 04:25:30;;;;;;;13.27;8.20;;;;;;;;;;4989033;28;20226;-85
2024/01/26 04:28:34;;;;;;;12.10;7.37;;;;;;;;;;4999547;28;20182;-85
2024/01/26 04:31:43;;;;;;;11.80;7.53;;;;;;;;;;4999600;28;20190;-85
2024/01/26 04:34:47;;;;;;;11.83;7.03;;;;;;;;;;5000292;28;20218;-85
2024/01/26 04:37:51;;;;;;;12.83;7.40;;;;;;;;;;4999700;28;20214;-85
2024/01/26 04:40:55;;;;;;;9.90;6.97;;;;;;;;;;4977282;28;20179;-85
2024/01/26 04:44:00;;;;;;;11.30;6.83;;;;;;;;;;5000064;28;20183;-85
2024/01/26 04:47:04;;;;;;;9.70;6.37;;;;;;;;;;4999190;28;20186;-85
2024/01/26 04:50:10;;;;;;;8.37;6.27;;;;;;;;;;4976563;28;20183;-85
2024/01/26 04:53:18;;;;;;;9.20;6.10;;;;;;;;;;4988447;28;20182;-84
2024/01/26 04:56:23;;;;;;;9.80;5.93;;;;;;;;;;4977126;28;20221;-85
2024/01/26 04:59:27;;;;;;;8.50;5.77;;;;;;;;;;5000411;28;20206;-85
2024/01/26 05:02:31;;;;;;;12.13;5.70;;;;;;;;;;4977597;28;20187;-85
2024/01/26 05:05:35;;;;;;;8.00;5.07;;;;;;;;;;5000454;28;20226;-85
2024/01/26 05:08:41;;;;;;;8.57;5.20;;;;;;;;;;4988034;28;20179;-85
2024/01/26 05:11:46;;;;;;;7.13;4.93;;;;;;;;;;5000134;28;20547;-85
2024/01/26 05:14:50;;;;;;;7.23;4.53;;;;;;;;;;4987521;28;20226;-85
2024/01/26 05:17:54;;;;;;;7.57;4.93;;;;;;;;;;4987631;28;20186;-86
2024/01/26 05:20:58;;;;;;;7.47;4.53;;;;;;;;;;4999594;28;20178;-85
2024/01/26 05:24:03;;;;;;;5.80;4.40;;;;;;;;;;4988516;28;20186;-85
2024/01/26 05:27:07;;;;;;;9.00;4.40;;;;;;;;;;4999139;28;20183;-84
2024/01/26 05:30:11;;;;;;;5.10;3.70;;;;;;;;;;4998789;28;20248;-85
2024/01/26 05:33:16;;;;;;;5.80;4.20;;;;;;;;;;4986818;28;20186;-84
2024/01/26 05:36:20;;;;;;;6.40;4.27;;;;;;;;;;4998032;28;20707;-85
2024/01/26 05:39:27;;;;;;;4.80;3.60;;;;;;;;;;5001341;28;20206;-81
2024/01/26 05:42:32;;;;;;;7.73;4.13;;;;;;;;;;4988544;28;20186;-80
2024/01/26 05:45:36;;;;;;;7.17;4.43;;;;;;;;;;4986883;28;20225;-80
2024/01/26 05:48:43;;;;;;;6.13;3.87;;;;;;;;;;4987174;28;20635;-81
2024/01/26 05:51:47;;;;;;;6.93;4.17;;;;;;;;;;4987352;28;20194;-81
2024/01/26 05:54:52;;;;;;;5.00;3.93;;;;;;;;;;4987427;28;20225;-81
2024/01/26 05:57:56;;;;;;;7.37;4.00;;;;;;;;;;4999450;28;20190;-81
2024/01/26 06:01:00;;;;;;;7.13;4.70;;;;;;;;;;4976846;28;20517;-81
2024/01/26 06:04:05;;;;;;;6.53;4.50;;;;;;;;;;4987348;28;20627;-81
2024/01/26 06:07:09;;;;;;;6.00;4.47;;;;;;;;;;4999609;28;20636;-81
2024/01/26 06:10:13;;;;;;;6.10;4.37;;;;;;;;;;4999805;28;20186;-81
2024/01/26 06:13:19;;;;;;;6.87;4.50;;;;;;;;;;5000185;28;20197;-81
2024/01/26 06:16:23;;;;;;;6.23;4.33;;;;;;;;;;4985695;28;20226;-80
2024/01/26 06:19:27;;;;;;;6.37;4.57;;;;;;;;;;4998713;28;20217;-81
2024/01/26 06:22:31;;;;;;;7.27;4.47;;;;;;;;;;4986603;28;20182;-80
2024/01/26 06:25:36;;;;;;;6.20;4.10;;;;;;;;;;4974896;28;20225;-81
2024/01/26 06:28:40;;;;;;;4.83;3.87;;;;;;;;;;4974186;28;20525;-80
2024/01/26 06:31:44;;;;;;;5.43;4.13;;;;;;;;;;4985888;28;20186;-80
2024/01/26 06:34:49;;;;;;;4.50;3.63;;;;;;;;;;4996333;28;20226;-81
2024/01/26 06:37:53;;;;;;;5.30;4.17;;;;;;;;;;4976418;28;20214;-81
2024/01/26 06:40:59;;;;;;;6.83;4.23;;;;;;;;;;4997987;28;20182;-81
2024/01/26 06:44:05;;;;;;;4.90;4.10;;;;;;;;;;4977101;28;20190;-81
2024/01/26 06:47:09;;;;;;;4.50;3.63;;;;;;;;;;4975014;28;20663;-81
2024/01/26 06:50:14;;;;;;;5.20;4.00;;;;;;;;;;4985685;28;20190;-81
2024/01/26 06:53:18;;;;;;;4.97;3.80;;;;;;;;;;4997569;28;20182;-81
2024/01/26 06:56:23;;;;;;;5.67;4.07;;;;;;;;;;4997240;28;20229;-81
2024/01/26 06:59:27;;;;;;;7.73;3.80;;;;;;;;;;4998251;28;20218;-81
2024/01/26 07:02:31;;;;;;;5.20;3.90;;;;;;;;;;4997698;28;20182;-82
2024/01/26 07:05:36;;;;;;;228.77;98.53;;;;;;;;;;4997585;28;20222;-82
2024/01/26 07:08:40;;;;;;;15.37;10.00;;;;;;;;;;4975559;28;20199;-81
2024/01/26 07:11:44;;;;;;;8.13;6.40;;;;;;;;;;4985802;28;20524;-81
2024/01/26 07:14:48;;;;;;;12.90;8.80;;;;;;;;;;4974046;28;20225;-82
2024/01/26 07:17:52;;;;;;;8.70;7.00;;;;;;;;;;4996770;28;20186;-82
2024/01/26 07:20:56;;;;;;;9.40;6.07;;;;;;;;;;4996711;28;20214;-82
2024/01/26 07:24:01;;;;;;;9.00;6.43;;;;;;;;;;4997424;28;20182;-82
2024/01/26 07:27:05;;;;;;;6.63;5.50;;;;;;;;;;4996129;28;20182;-81
2024/01/26 07:30:10;;;;;;;5.73;4.80;;;;;;;;;;4985522;28;20182;-83
2024/01/26 07:33:14;;;;;;;29.33;19.80;;;;;;;;;;4997269;28;20178;-82
2024/01/26 07:36:21;;;;;;;9.77;8.40;;;;;;;;;;4995999;28;20221;-83
2024/01/26 07:39:26;;;;;;;5.43;4.47;;;;;;;;;;4996665;28;20218;-82
2024/01/26 07:42:31;;;;;;;13.87;10.17;;;;;;;;;;4988136;28;20186;-82
2024/01/26 07:45:35;;;;;;;48.57;29.60;;;;;;;;;;5000914;28;20221;-82
2024/01/26 07:48:39;;;;;;;28.37;19.07;;;;;;;;;;5000268;28;20189;-82
2024/01/26 07:51:43;;;;;;;11.27;8.40;;;;;;;;;;5002692;28;20178;-82
2024/01/26 07:54:53;;;;;;;4.70;3.93;;;;;;;;;;5001545;28;20226;-82
2024/01/26 07:57:57;;;;;;;5.30;4.20;;;;;;;;;;4979208;28;20194;-81
2024/01/26 08:01:01;;;;;;;100.73;7.93;;;;;;;;;;5002102;28;20213;-81
2024/01/26 08:04:05;;;;;;;9.00;3.03;;;;;;;;;;5000866;28;20182;-81
2024/01/26 08:07:09;;;;;;;9.60;3.40;;;;;;;;;;4988736;28;20190;-81
2024/01/26 08:10:14;;;;;;;13.00;2.87;;;;;;;;;;5000974;28;20178;-81
2024/01/26 08:13:17;;;;;;;7.20;2.53;;;;;;;;;;4989259;28;20182;-81
2024/01/26 08:16:22;;;;;;;4.30;2.40;;;;;;;;;;5000248;28;20218;-81
2024/01/26 08:19:26;;;;;;;8.80;2.50;;;;;;;;;;5000194;28;20214;-81
2024/01/26 08:22:30;;;;;;;3.40;2.10;;;;;;;;;;4999836;28;20190;-81
2024/01/26 08:25:34;;;;;;;6.43;2.90;;;;;;;;;;5000696;28;20217;-81
2024/01/26 08:28:39;;;;;;;2.83;2.27;;;;;;;;;;4977720;28;20517;-79
2024/01/26 08:31:44;;;;;;;19.40;2.70;;;;;;;;;;5000450;28;20182;-82
2024/01/26 08:34:48;;;;;;;17.20;2.53;;;;;;;;;;4977403;28;20229;-82
2024/01/26 08:37:52;;;;;;;2.27;1.70;;;;;;;;;;4988275;28;20214;-82
2024/01/26 08:40:57;;;;;;;48.77;2.80;;;;;;;;;;5000178;28;20222;-83
2024/01/26 08:44:01;;;;;;;6.33;1.60;;;;;;;;;;4998970;28;20257;-82
2024/01/26 08:47:06;;;;;;;13.00;3.10;;;;;;;;;;4999236;28;20194;-82
2024/01/26 08:50:11;;;;;;;13.43;2.57;;;;;;;;;;4999710;28;20648;-82
2024/01/26 08:53:15;;;;;;;11.40;4.67;;;;;;;;;;4987460;28;20194;-82
2024/01/26 08:56:19;;;;;;;4.83;1.97;;;;;;;;;;4999909;28;20222;-82
2024/01/26 08:59:23;;;;;;;11.37;2.67;;;;;;;;;;4987546;28;20194;-83
2024/01/26 09:02:28;;;;;;;2.73;1.30;;;;;;;;;;4976423;28;20186;-82
2024/01/26 09:05:31;;;;;;;3.83;1.83;;;;;;;;;;4998558;28;20237;-82
2024/01/26 09:08:36;;;;;;;3.30;1.40;;;;;;;;;;4987595;28;20190;-82
2024/01/26 09:11:40;;;;;;;2.90;1.43;;;;;;;;;;4999480;28;20186;-82
2024/01/26 09:14:44;;;;;;;2.07;1.20;;;;;;;;;;4998943;28;20217;-82
2024/01/26 09:17:48;;;;;;;1.97;1.10;;;;;;;;;;4986754;28;20194;-82
2024/01/26 09:20:53;;;;;;;3.17;1.40;;;;;;;;;;4997776;28;20210;-82
2024/01/26 09:23:58;;;;;;;1.70;1.30;;;;;;;;;;4987130;28;20190;-82
2024/01/26 09:27:02;;;;;;;8.40;1.43;;;;;;;;;;4986598;28;20194;-82
2024/01/26 09:30:06;;;;;;;5.03;1.27;;;;;;;;;;4998350;28;20186;-82
2024/01/26 09:33:10;;;;;;;7.80;1.47;;;;;;;;;;4987050;28;20190;-82
2024/01/26 09:36:14;;;;;;;1.30;1.10;;;;;;;;;;4974387;28;20218;-82
2024/01/26 09:39:18;;;;;;;2.83;1.20;;;;;;;;;;4998068;28;20178;-82
2024/01/26 09:42:23;;;;;;;12.20;3.83;;;;;;;;;;4998093;28;20174;-82
2024/01/26 09:45:27;;;;;;;5.83;1.50;;;;;;;;;;4997903;28;20234;-82
2024/01/26 09:48:33;;;;;;;3.13;1.40;;;;;;;;;;4996918;28;20183;-82
2024/01/26 09:51:38;;;;;;;3.47;1.30;;;;;;;;;;4975354;28;20191;-83
2024/01/26 09:54:43;;;;;;;2.40;1.10;;;;;;;;;;4998074;28;20186;-82
2024/01/26 09:57:47;;;;;;;4.73;1.00;;;;;;;;;;4998036;28;20640;-82
2024/01/26 10:00:54;;;;;;;1.73;1.00;;;;;;;;;;4997552;28;20214;-82
2024/01/26 10:03:59;;;;;;;1.57;0.90;;;;;;;;;;4962717;28;20186;-82
2024/01/26 10:07:03;;;;;;;4.80;0.97;;;;;;;;;;4974686;28;20516;-82
2024/01/26 10:10:07;;;;;;;2.90;1.00;;;;;;;;;;4997292;28;20182;-82
2024/01/26 10:13:12;;;;;;;3.90;1.27;;;;;;;;;;4997179;28;20182;-82
2024/01/26 10:16:16;;;;;;;7.13;1.10;;;;;;;;;;4997096;28;20580;-82
2024/01/26 10:19:25;;;;;;;2.03;0.80;;;;;;;;;;4997473;28;20194;-82
2024/01/26 10:22:29;;;;;;;2.20;0.90;;;;;;;;;;4996309;28;20639;-82
2024/01/26 10:25:35;;;;;;;2.23;0.70;;;;;;;;;;4996892;28;20230;-82
2024/01/26 10:28:40;;;;;;;4.10;0.77;;;;;;;;;;4963633;28;20182;-82
2024/01/26 10:31:45;;;;;;;5.77;2.57;;;;;;;;;;4997365;28;20513;-82
2024/01/26 10:34:50;;;;;;;5.93;3.33;;;;;;;;;;4996150;28;20221;-82
2024/01/26 10:37:56;;;;;;;1.33;1.00;;;;;;;;;;4996071;28;20210;-83
2024/01/26 10:41:04;;;;;;;3.97;1.30;;;;;;;;;;4973669;28;20214;-82
2024/01/26 10:44:10;;;;;;;5.80;1.00;;;;;;;;;;4996988;28;20648;-82
2024/01/26 10:47:18;;;;;;;2.67;0.90;;;;;;;;;;4996068;28;20190;-82
2024/01/26 10:50:23;;;;;;;1.90;1.07;;;;;;;;;;4996938;28;20179;-82
2024/01/26 10:53:27;;;;;;;6.53;1.20;;;;;;;;;;4996853;28;20190;-81
2024/01/26 10:56:32;;;;;;;5.63;1.03;;;;;;;;;;4997052;28;20329;-81
2024/01/26 10:59:39;;;;;;;3.43;1.20;;;;;;;;;;4996205;28;20190;-81
2024/01/26 11:02:44;;;;;;;4.63;0.80;;;;;;;;;;4996830;28;20187;-81
2024/01/26 11:05:52;;;;;;;2.70;1.00;;;;;;;;;;4984692;28;20221;-81
2024/01/26 11:09:01;;;;;;;6.93;1.00;;;;;;;;;;4984112;28;20533;-81
2024/01/26 11:12:08;;;;;;;1.00;0.60;;;;;;;;;;4995362;28;20183;-80
2024/01/26 11:15:13;;;;;;;0.80;0.60;;;;;;;;;;4984094;28;20226;-84
2024/01/26 11:18:26;;;;;;;0.90;0.60;;;;;;;;;;4995610;28;20186;-84
2024/01/26 11:21:46;;;;;;;2.17;0.77;;;;;;;;;;4995486;28;20210;-84
2024/01/26 11:24:54;;;;;;;1.87;0.73;;;;;;;;;;4994833;28;20217;-84
2024/01/26 11:28:07;;;;;;;1.00;0.80;;;;;;;;;;4984583;28;20190;-84
2024/01/26 11:31:27;;;;;;;0.90;0.70;;;;;;;;;;4996486;28;20179;-84
2024/01/26 11:34:34;;;;;;;1.40;0.90;;;;;;;;;;4995648;28;20540;-84
2024/01/26 11:37:41;;;;;;;1.20;0.93;;;;;;;;;;4972634;28;20218;-84
2024/01/26 11:41:06;;;;;;;2.20;0.97;;;;;;;;;;4983448;28;20217;-84
2024/01/26 11:44:30;;;;;;;1.80;0.77;;;;;;;;;;4996359;28;20186;-84
2024/01/26 11:47:39;;;;;;;2.07;1.20;;;;;;;;;;4996583;28;20182;-86
2024/01/26 11:50:45;;;;;;;1.80;1.03;;;;;;;;;;4996032;28;20187;-84
2024/01/26 11:53:49;;;;;;;1.20;0.70;;;;;;;;;;4986617;28;20186;-83
2024/01/26 11:56:53;;;;;;;1.33;0.70;;;;;;;;;;4997282;28;20182;-83
2024/01/26 11:59:58;;;;;;;2.80;1.23;;;;;;;;;;4997984;28;20182;-82
2024/01/26 12:03:08;;;;;;;2.93;0.77;;;;;;;;;;4997083;28;20174;-86
2024/01/26 12:06:13;;;;;;;2.47;0.90;;;;;;;;;;4984026;28;20214;-86
2024/01/26 12:09:18;;;;;;;1.80;0.77;;;;;;;;;;4996299;28;20186;-86
2024/01/26 12:12:22;;;;;;;0.73;0.63;;;;;;;;;;4974409;28;20624;-86
2024/01/26 12:15:31;;;;;;;0.90;0.77;;;;;;;;;;4994537;28;20225;-86
2024/01/26 12:18:34;;;;;;;1.83;0.80;;;;;;;;;;4995542;28;20183;-86
2024/01/26 12:21:38;;;;;;;1.50;0.77;;;;;;;;;;4994619;28;20222;-86
2024/01/26 12:24:43;;;;;;;1.77;0.57;;;;;;;;;;4994700;28;20225;-86
2024/01/26 12:27:48;;;;;;;1.10;0.87;;;;;;;;;;4986252;28;20191;-85
2024/01/26 12:30:52;;;;;;;1.33;0.77;;;;;;;;;;4999327;28;20623;-86
2024/01/26 12:33:56;;;;;;;1.17;0.80;;;;;;;;;;4998532;28;20659;-86
2024/01/26 12:37:00;;;;;;;0.93;0.70;;;;;;;;;;4976113;28;20209;-85
2024/01/26 12:40:06;;;;;;;1.60;0.90;;;;;;;;;;4998821;28;20186;-85
2024/01/26 12:43:11;;;;;;;1.40;1.17;;;;;;;;;;4998588;28;20186;-85
2024/01/26 12:46:15;;;;;;;1.00;0.90;;;;;;;;;;5000111;28;20226;-85
2024/01/26 12:49:20;;;;;;;0.93;0.83;;;;;;;;;;4998937;28;20194;-85
2024/01/26 12:52:25;;;;;;;2.30;1.07;;;;;;;;;;4976295;28;20186;-85
2024/01/26 12:55:28;;;;;;;1.57;1.07;;;;;;;;;;4976535;28;20218;-85
2024/01/26 12:58:33;;;;;;;1.67;0.90;;;;;;;;;;4999676;28;20190;-86
2024/01/26 13:01:39;;;;;;;3.23;1.03;;;;;;;;;;4998289;28;20209;-85
2024/01/26 13:04:49;;;;;;;0.80;0.80;;;;;;;;;;4998053;28;20218;-86
2024/01/26 13:07:53;;;;;;;2.07;1.00;;;;;;;;;;4998011;28;20186;-84
2024/01/26 13:10:58;;;;;;;1.00;0.90;;;;;;;;;;4966835;28;20183;-85
2024/01/26 13:14:04;;;;;;;1.67;0.80;;;;;;;;;;4975630;28;20191;-85
2024/01/26 13:17:08;;;;;;;1.53;0.90;;;;;;;;;;4998216;28;20520;-84
2024/01/26 13:20:12;;;;;;;2.20;1.00;;;;;;;;;;4998609;28;20536;-85
2024/01/26 13:23:18;;;;;;;1.00;0.70;;;;;;;;;;4975609;28;20179;-85
2024/01/26 13:26:22;;;;;;;2.97;1.50;;;;;;;;;;4975162;28;20225;-84
2024/01/26 13:29:26;;;;;;;4.67;2.50;;;;;;;;;;4975285;28;20186;-85
2024/01/26 13:32:30;;;;;;;41.20;19.57;;;;;;;;;;4997873;28;20182;-85
2024/01/26 13:35:34;;;;;;;10.13;5.90;;;;;;;;;;4986057;28;20230;-85
2024/01/26 13:38:38;;;;;;;2.47;1.33;;;;;;;;;;4996693;28;20182;-85
2024/01/26 13:41:43;;;;;;;3.90;3.00;;;;;;;;;;4998439;28;20210;-84
2024/01/26 13:44:48;;;;;;;2.97;1.60;;;;;;;;;;4975351;28;20221;-84
2024/01/26 13:47:52;;;;;;;4.70;2.10;;;;;;;;;;4975661;28;20186;-84
2024/01/26 13:50:59;;;;;;;9.97;8.53;;;;;;;;;;4997245;28;20193;-83
2024/01/26 13:54:03;;;;;;;7.50;5.57;;;;;;;;;;4998301;28;20186;-83
2024/01/26 13:57:07;;;;;;;5.87;2.70;;;;;;;;;;4987243;28;20194;-83
2024/01/26 14:00:12;;;;;;;2.87;1.87;;;;;;;;;;4985296;28;20205;-83
2024/01/26 14:03:16;;;;;;;3.90;2.10;;;;;;;;;;4996659;28;20174;-83
2024/01/26 14:06:22;;;;;;;3.33;1.90;;;;;;;;;;4984978;28;20217;-82
2024/01/26 14:09:27;;;;;;;3.27;2.70;;;;;;;;;;4997161;28;20182;-82
2024/01/26 14:12:30;;;;;;;3.00;1.73;;;;;;;;;;4984725;28;20571;-82
2024/01/26 14:15:35;;;;;;;3.13;2.03;;;;;;;;;;4996926;28;20586;-83
2024/01/26 14:18:39;;;;;;;4.13;2.63;;;;;;;;;;4997178;28;20190;-82
2024/01/26 14:21:43;;;;;;;2.40;1.80;;;;;;;;;;4995924;28;20222;-84
2024/01/26 14:24:48;;;;;;;2.53;2.10;;;;;;;;;;4995475;28;20226;-86
2024/01/26 14:27:52;;;;;;;4.67;2.00;;;;;;;;;;4973810;28;20190;-85
2024/01/26 14:30:57;;;;;;;5.17;1.80;;;;;;;;;;4996404;28;20194;-86
2024/01/26 14:34:01;;;;;;;2.33;1.73;;;;;;;;;;4985149;28;20190;-86
2024/01/26 14:37:05;;;;;;;2.67;1.63;;;;;;;;;;4984816;28;20214;-85
2024/01/26 14:40:16;;;;;;;2.03;1.70;;;;;;;;;;4984690;28;20544;-85
2024/01/26 14:43:22;;;;;;;2.60;1.80;;;;;;;;;;4984580;28;20214;-85
2024/01/26 14:46:29;;;;;;;2.17;1.40;;;;;;;;;;4995312;28;20225;-85
2024/01/26 14:49:33;;;;;;;1.73;1.57;;;;;;;;;;4996525;28;20633;-85
2024/01/26 14:52:38;;;;;;;4.40;1.50;;;;;;;;;;4995850;28;20620;-85
2024/01/26 14:55:42;;;;;;;2.63;1.67;;;;;;;;;;4984320;28;20222;-85
2024/01/26 14:58:46;;;;;;;2.83;1.60;;;;;;;;;;4996382;28;20185;-85
2024/01/26 15:01:51;;;;;;;3.43;2.17;;;;;;;;;;4996363;28;20214;-84
2024/01/26 15:04:55;;;;;;;8.43;5.93;;;;;;;;;;4995705;28;20221;-85
2024/01/26 15:07:59;;;;;;;3.40;3.10;;;;;;;;;;4984636;28;20201;-85
2024/01/26 15:11:06;;;;;;;3.87;1.90;;;;;;;;;;4995982;28;20189;-85
2024/01/26 15:14:10;;;;;;;2.40;1.77;;;;;;;;;;4972937;28;20178;-85
2024/01/26 15:17:14;;;;;;;1.80;1.70;;;;;;;;;;4996101;28;20186;-85
2024/01/26 15:20:19;;;;;;;1.73;1.50;;;;;;;;;;4996199;28;20186;-85
2024/01/26 15:23:23;;;;;;;3.17;1.40;;;;;;;;;;4984635;28;20214;-84
2024/01/26 15:26:28;;;;;;;3.17;1.73;;;;;;;;;;4994921;28;20229;-85
2024/01/26 15:29:32;;;;;;;3.37;1.90;;;;;;;;;;4996658;28;20186;-84
2024/01/26 15:32:37;;;;;;;2.97;1.77;;;;;;;;;;4996115;28;20182;-85
2024/01/26 15:35:40;;;;;;;2.60;1.70;;;;;;;;;;4995173;28;20230;-84
2024/01/26 15:38:44;;;;;;;4.90;1.70;;;;;;;;;;4983973;28;20174;-83
2024/01/26 15:41:49;;;;;;;2.63;1.67;;;;;;;;;;4983613;28;20213;-83
2024/01/26 15:44:54;;;;;;;2.97;1.70;;;;;;;;;;4995680;28;20226;-84
2024/01/26 15:47:58;;;;;;;3.27;2.07;;;;;;;;;;4984341;28;20194;-85
2024/01/26 15:51:03;;;;;;;2.90;1.70;;;;;;;;;;4994661;28;20194;-85
2024/01/26 15:54:09;;;;;;;2.20;1.80;;;;;;;;;;4984090;28;20182;-83
2024/01/26 15:57:13;;;;;;;1.80;1.60;;;;;;;;;;4996179;28;20190;-83
2024/01/26 16:00:18;;;;;;;4.17;2.60;;;;;;;;;;4995573;28;20190;-84
2024/01/26 16:03:21;;;;;;;3.83;2.27;;;;;;;;;;4986646;28;20218;-84
2024/01/26 16:06:26;;;;;;;2.33;2.10;;;;;;;;;;5001494;28;20563;-82
2024/01/26 16:09:30;;;;;;;3.50;2.30;;;;;;;;;;5000882;28;20266;-84
2024/01/26 16:12:36;;;;;;;3.80;2.00;;;;;;;;;;4976460;28;20190;-85
2024/01/26 16:15:40;;;;;;;2.60;1.60;;;;;;;;;;4999101;28;20229;-85
2024/01/26 16:18:46;;;;;;;3.63;2.30;;;;;;;;;;4987591;28;20190;-86
2024/01/26 16:21:50;;;;;;;4.87;2.33;;;;;;;;;;4997868;28;20217;-85
2024/01/26 16:24:54;;;;;;;3.30;2.50;;;;;;;;;;4975927;28;20217;-85
2024/01/26 16:27:58;;;;;;;3.67;2.13;;;;;;;;;;4976916;28;20182;-85
2024/01/26 16:31:03;;;;;;;3.50;2.40;;;;;;;;;;4998746;28;20190;-86
2024/01/26 16:34:07;;;;;;;4.43;3.10;;;;;;;;;;4997967;28;20181;-85
2024/01/26 16:37:11;;;;;;;10.23;7.13;;;;;;;;;;4997742;28;20214;-85
2024/01/26 16:40:15;;;;;;;3.17;2.70;;;;;;;;;;4997716;28;20190;-84
2024/01/26 16:43:19;;;;;;;2.83;2.10;;;;;;;;;;4998619;28;20218;-85
2024/01/26 16:46:23;;;;;;;4.23;2.50;;;;;;;;;;4987068;28;20225;-84
2024/01/26 16:49:27;;;;;;;7.10;2.80;;;;;;;;;;4998237;28;20186;-84
2024/01/26 16:52:33;;;;;;;5.90;2.50;;;;;;;;;;4997665;28;20627;-85
2024/01/26 16:55:36;;;;;;;2.87;2.53;;;;;;;;;;4986670;28;20222;-84
2024/01/26 16:58:40;;;;;;;3.77;2.47;;;;;;;;;;4997987;28;20190;-83
2024/01/26 17:01:45;;;;;;;3.23;2.37;;;;;;;;;;4986224;28;20190;-82
2024/01/26 17:04:49;;;;;;;4.10;2.83;;;;;;;;;;4986275;28;20230;-85
2024/01/26 17:07:53;;;;;;;5.00;2.43;;;;;;;;;;4975545;28;20199;-83
2024/01/26 17:10:57;;;;;;;3.90;2.70;;;;;;;;;;4998709;28;20186;-84
2024/01/26 17:14:02;;;;;;;5.63;2.50;;;;;;;;;;4997401;28;20178;-84
2024/01/26 17:17:06;;;;;;;3.00;2.23;;;;;;;;;;4997496;28;20182;-85
2024/01/26 17:20:10;;;;;;;2.50;2.10;;;;;;;;;;4997857;28;20186;-84
2024/01/26 17:23:14;;;;;;;4.43;2.40;;;;;;;;;;4997322;28;20214;-83
2024/01/26 17:26:18;;;;;;;4.13;2.67;;;;;;;;;;4997763;28;20221;-84
2024/01/26 17:29:23;;;;;;;2.83;2.20;;;;;;;;;;4986497;28;20190;-84
2024/01/26 17:32:28;;;;;;;2.90;2.20;;;;;;;;;;4998050;28;20182;-84
2024/01/26 17:35:32;;;;;;;2.30;2.10;;;;;;;;;;4998054;28;20226;-84
2024/01/26 17:38:36;;;;;;;5.50;2.27;;;;;;;;;;4998229;28;20513;-84
2024/01/26 17:41:40;;;;;;;3.90;2.13;;;;;;;;;;4986838;28;20202;-85
2024/01/26 17:44:45;;;;;;;2.53;1.90;;;;;;;;;;4996980;28;20706;-84
2024/01/26 17:47:51;;;;;;;3.20;1.30;;;;;;;;;;4998344;28;20190;-85
2024/01/26 17:50:55;;;;;;;1.93;1.20;;;;;;;;;;4974793;28;20547;-85
2024/01/26 17:54:00;;;;;;;2.60;1.00;;;;;;;;;;4998277;28;20635;-85
2024/01/26 17:57:04;;;;;;;1.37;0.90;;;;;;;;;;4986330;28;20194;-85
2024/01/26 18:00:09;;;;;;;1.33;0.90;;;;;;;;;;4986245;28;20187;-85
2024/01/26 18:03:13;;;;;;;0.90;0.90;;;;;;;;;;4975174;28;20214;-86
2024/01/26 18:06:18;;;;;;;1.80;0.90;;;;;;;;;;4997680;28;20226;-85
2024/01/26 18:09:22;;;;;;;1.87;0.97;;;;;;;;;;4998152;28;20182;-86
2024/01/26 18:12:26;;;;;;;3.30;1.00;;;;;;;;;;4997267;28;20182;-85
2024/01/26 18:15:30;;;;;;;3.03;0.97;;;;;;;;;;4995481;28;20221;-85
2024/01/26 18:18:35;;;;;;;3.50;1.00;;;;;;;;;;4984156;28;20186;-84
2024/01/26 18:21:39;;;;;;;2.80;0.90;;;;;;;;;;4985078;28;20186;-85